createdAt,value
2019-02-12T00:04:49.402Z,96176.14
2019-02-12T00:09:50.765Z,96189.14
2019-02-12T00:14:52.132Z,96205.58
2019-02-12T00:19:53.491Z,96214.30
2019-02-12T00:24:54.855Z,96225.50
2019-02-12T00:29:56.291Z,96221.23
2019-02-12T00:34:57.600Z,96231.37
2019-02-12T00:39:58.973Z,96239.67
2019-02-12T00:45:00.311Z,96248.21
2019-02-12T00:50:01.711Z,96259.27
2019-02-12T00:55:03.024Z,96263.31
2019-02-12T01:00:06.680Z,96277.91
2019-02-12T01:05:08.070Z,96289.59
2019-02-12T01:10:17.588Z,96295.40
2019-02-12T01:15:18.908Z,96292.27
2019-02-12T01:20:20.273Z,96288.15
2019-02-12T01:25:21.631Z,96302.64
2019-02-12T01:30:22.976Z,96318.70
2019-02-12T01:35:24.296Z,96316.55
2019-02-12T01:40:25.660Z,96318.22
2019-02-12T01:45:26.994Z,96309.21
2019-02-12T01:50:28.372Z,96314.26
2019-02-12T01:55:30.469Z,96334.74
2019-02-12T02:00:31.800Z,96339.19
2019-02-12T02:05:33.122Z,96356.08
2019-02-12T02:10:34.540Z,96336.83
2019-02-12T02:15:35.870Z,96348.38
2019-02-12T02:20:37.213Z,96325.89
2019-02-12T02:25:38.527Z,96329.84
2019-02-12T02:30:39.881Z,96339.11
2019-02-12T02:35:41.204Z,96363.17
2019-02-12T02:40:42.550Z,96359.52
2019-02-12T02:45:43.918Z,96374.19
2019-02-12T02:50:45.209Z,96364.70
2019-02-12T02:55:46.574Z,96351.21
2019-02-12T03:00:47.969Z,96339.09
2019-02-12T03:05:50.100Z,96357.80
2019-02-12T03:10:52.307Z,96337.36
2019-02-12T03:15:52.914Z,96345.78
2019-02-12T03:20:54.323Z,96347.08
2019-02-12T03:25:55.639Z,96359.45
2019-02-12T03:30:56.961Z,96365.10
2019-02-12T03:35:58.338Z,96373.60
2019-02-12T03:40:59.689Z,96380.28
2019-02-12T03:46:01.034Z,96400.91
2019-02-12T03:51:02.360Z,96403.78
2019-02-12T03:56:03.685Z,96419.25
2019-02-12T04:01:05.033Z,96403.06
2019-02-12T04:06:06.353Z,96398.70
2019-02-12T04:11:07.664Z,96413.58
2019-02-12T04:16:09.113Z,96404.30
2019-02-12T04:21:10.489Z,96423.11
2019-02-12T04:26:11.809Z,96450.89
2019-02-12T04:31:13.125Z,96440.20
2019-02-12T04:36:14.423Z,96421.01
2019-02-12T04:41:15.744Z,96440.18
2019-02-12T04:46:17.076Z,96441.25
2019-02-12T04:51:18.387Z,96443.80
2019-02-12T04:56:19.766Z,96415.36
2019-02-12T05:01:21.122Z,96447.50
2019-02-12T05:06:22.407Z,96444.90
2019-02-12T05:11:23.729Z,96443.87
2019-02-12T05:16:25.096Z,96453.93
2019-02-12T05:21:26.433Z,96471.12
2019-02-12T05:26:27.977Z,96469.47
2019-02-12T05:31:29.418Z,96481.28
2019-02-12T05:36:30.799Z,96469.70
2019-02-12T05:41:32.117Z,96479.45
2019-02-12T05:46:33.584Z,96480.34
2019-02-12T05:51:34.912Z,96477.98
2019-02-12T05:56:36.212Z,96475.62
2019-02-12T06:01:37.573Z,96525.45
2019-02-12T06:06:39.500Z,96494.65
2019-02-12T06:11:40.827Z,96507.02
2019-02-12T06:16:42.893Z,96506.33
2019-02-12T06:21:44.249Z,96507.84
2019-02-12T06:26:45.585Z,96524.17
2019-02-12T06:31:46.894Z,96519.47
2019-02-12T06:36:48.281Z,96523.28
2019-02-12T06:41:50.466Z,96525.11
2019-02-12T06:46:51.842Z,96547.47
2019-02-12T06:51:53.201Z,96531.97
2019-02-12T06:56:54.598Z,96534.37
2019-02-12T07:02:14.336Z,96569.83
2019-02-12T07:07:27.436Z,96560.97
2019-02-12T07:12:32.582Z,96579.53
2019-02-12T07:17:53.709Z,96579.56
2019-02-12T07:23:08.624Z,96567.62
2019-02-12T07:28:15.592Z,96599.38
2019-02-12T07:33:25.878Z,96619.95
2019-02-12T07:38:49.778Z,96602.92
2019-02-12T07:49:35.977Z,96645.23
2019-02-12T07:54:44.053Z,96638.75
2019-02-12T07:59:52.995Z,96639.55
2019-02-12T08:05:00.330Z,96642.17
2019-02-12T08:15:50.757Z,96656.56
2019-02-12T08:26:44.721Z,96653.94
2019-02-12T08:37:39.199Z,96637.68
2019-02-12T08:42:52.987Z,96654.47
2019-02-12T08:53:56.364Z,96675.55
2019-02-12T08:59:19.457Z,96664.27
2019-02-12T09:04:29.657Z,96675.63
2019-02-12T09:15:40.353Z,96683.73
2019-02-12T09:26:16.764Z,96699.50
2019-02-12T09:37:24.424Z,96713.56
2019-02-12T09:48:29.116Z,96728.90
2019-02-12T09:53:35.152Z,96716.59
2019-02-12T09:58:48.329Z,96713.84
2019-02-12T10:04:17.815Z,96713.81
2019-02-12T10:15:13.116Z,96720.42
2019-02-12T10:20:23.572Z,96718.84
2019-02-12T10:25:24.856Z,96737.77
2019-02-12T10:30:41.845Z,96735.50
2019-02-12T10:35:43.145Z,96739.45
2019-02-12T10:40:44.481Z,96755.16
2019-02-12T10:45:45.795Z,96731.80
2019-02-12T10:50:47.129Z,96743.91
2019-02-12T10:55:48.408Z,96742.87
2019-02-12T11:00:49.754Z,96710.02
2019-02-12T11:05:51.049Z,96721.22
2019-02-12T11:10:52.385Z,96731.70
2019-02-12T11:15:53.685Z,96740.28
2019-02-12T11:20:54.988Z,96737.66
2019-02-12T11:25:56.278Z,96739.00
2019-02-12T11:30:57.564Z,96739.81
2019-02-12T11:35:58.888Z,96743.67
2019-02-12T11:41:00.168Z,96730.17
2019-02-12T11:46:01.447Z,96728.00
2019-02-12T11:51:02.760Z,96717.34
2019-02-12T11:56:04.047Z,96741.44
2019-02-12T12:01:05.373Z,96715.67
2019-02-12T12:06:06.653Z,96700.53
2019-02-12T12:11:07.977Z,96719.43
2019-02-12T12:16:11.170Z,96727.71
2019-02-12T12:21:12.099Z,96757.41
2019-02-12T12:26:13.388Z,96735.62
2019-02-12T12:31:14.696Z,96730.59
2019-02-12T12:36:15.996Z,96738.28
2019-02-12T12:41:17.360Z,96721.91
2019-02-12T12:46:18.677Z,96726.04
2019-02-12T12:51:19.981Z,96728.76
2019-02-12T12:56:21.249Z,96755.50
2019-02-12T13:01:22.560Z,96739.44
2019-02-12T13:06:23.845Z,96744.06
2019-02-12T13:11:26.667Z,96744.51
2019-02-12T13:16:26.473Z,96750.13
2019-02-12T13:21:27.765Z,96760.78
2019-02-12T13:26:29.080Z,96754.83
2019-02-12T13:31:30.392Z,96747.94
2019-02-12T13:36:31.700Z,96749.23
2019-02-12T13:41:33.740Z,96754.95
2019-02-12T13:46:35.049Z,96771.63
2019-02-12T13:51:36.339Z,96762.64
2019-02-12T13:56:37.664Z,96764.37
2019-02-12T14:01:39.744Z,96760.10
2019-02-12T14:06:41.808Z,96763.41
2019-02-12T14:11:43.109Z,96769.06
2019-02-12T14:16:44.471Z,96765.19
2019-02-12T14:21:45.727Z,96766.80
2019-02-12T14:26:47.024Z,96777.95
2019-02-12T14:31:53.015Z,96790.09
2019-02-12T14:36:49.728Z,96783.03
2019-02-12T14:41:51.073Z,96787.69
2019-02-12T14:46:52.377Z,96783.84
2019-02-12T14:51:53.676Z,96800.16
2019-02-12T14:56:54.981Z,96785.58
2019-02-12T15:01:56.308Z,96795.62
2019-02-12T15:06:58.376Z,96796.92
2019-02-12T15:11:59.696Z,96791.92
2019-02-12T15:17:01.067Z,96791.40
2019-02-12T15:22:02.363Z,96784.34
2019-02-12T15:27:03.662Z,96793.18
2019-02-12T15:32:04.985Z,96792.61
2019-02-12T15:37:06.297Z,96800.16
2019-02-12T15:42:07.596Z,96792.11
2019-02-12T15:47:08.957Z,96805.12
2019-02-12T15:52:10.293Z,96798.02
2019-02-12T15:57:11.659Z,96798.44
2019-02-12T16:02:13.679Z,96800.52
2019-02-12T16:07:14.423Z,96799.73
2019-02-12T16:12:15.741Z,96811.31
2019-02-12T16:17:17.041Z,96808.81
2019-02-12T16:22:18.337Z,96806.24
2019-02-12T16:27:20.497Z,96825.63
2019-02-12T16:32:21.804Z,96836.73
2019-02-12T16:37:23.105Z,96828.92
2019-02-12T16:42:24.384Z,96845.00
2019-02-12T16:47:25.709Z,96859.39
2019-02-12T16:52:27.026Z,96864.28
2019-02-12T16:57:28.297Z,96874.41
2019-02-12T17:02:30.316Z,96881.67
2019-02-12T17:07:31.700Z,96884.19
2019-02-12T17:12:33.696Z,96886.06
2019-02-12T17:17:35.060Z,96897.78
2019-02-12T17:22:36.363Z,96901.83
2019-02-12T17:27:37.651Z,96906.45
2019-02-12T17:32:38.971Z,96917.34
2019-02-12T17:37:40.285Z,96923.47
2019-02-12T17:42:42.593Z,96927.48
2019-02-12T17:47:44.017Z,96930.17
2019-02-12T17:52:45.394Z,96929.93
2019-02-12T17:57:46.683Z,96924.13
2019-02-12T18:02:48.075Z,96932.95
2019-02-12T18:07:51.299Z,96938.28
2019-02-12T18:12:54.961Z,96939.33
2019-02-12T18:17:56.426Z,96949.46
2019-02-12T18:22:57.760Z,96951.98
2019-02-12T18:27:59.118Z,96958.34
2019-02-12T18:33:01.990Z,96964.91
2019-02-12T18:38:08.720Z,96972.28
2019-02-12T18:43:17.630Z,96977.13
2019-02-12T18:48:48.477Z,96978.06
2019-02-12T18:53:49.780Z,96991.22
2019-02-12T18:58:51.071Z,96994.31
2019-02-12T19:03:52.385Z,96987.00
2019-02-12T19:08:53.726Z,96985.38
2019-02-12T19:13:55.006Z,96987.72
2019-02-12T19:18:57.043Z,96991.37
2019-02-12T19:23:58.365Z,96988.14
2019-02-12T19:28:59.660Z,97002.69
2019-02-12T19:34:00.988Z,97005.16
2019-02-12T19:39:12.825Z,97009.51
2019-02-12T19:44:14.259Z,97005.84
2019-02-12T19:49:16.333Z,97016.05
2019-02-12T19:54:18.582Z,97012.55
2019-02-12T19:59:19.980Z,97016.65
2019-02-12T20:04:23.064Z,97016.65
2019-02-12T20:09:24.503Z,97021.00
2019-02-12T20:14:25.823Z,97025.80
2019-02-12T20:19:27.147Z,97023.92
2019-02-12T20:24:28.485Z,97029.73
2019-02-12T20:29:29.772Z,97030.94
2019-02-12T20:34:31.457Z,97020.57
2019-02-12T20:39:32.817Z,97028.28
2019-02-12T20:44:34.129Z,97032.06
2019-02-12T20:49:35.547Z,97040.69
2019-02-12T20:54:36.900Z,97031.28
2019-02-12T20:59:38.292Z,97028.73
2019-02-12T21:04:40.362Z,97026.94
2019-02-12T21:09:42.427Z,97020.61
2019-02-12T21:14:43.741Z,97019.81
2019-02-12T21:19:45.132Z,97004.50
2019-02-12T21:24:46.562Z,97009.74
2019-02-12T21:29:48.035Z,97007.53
2019-02-12T21:34:49.255Z,97022.62
2019-02-12T21:39:50.612Z,97011.92
2019-02-12T21:44:56.287Z,97016.54
2019-02-12T21:50:02.825Z,97013.73
2019-02-12T21:55:08.378Z,97030.59
2019-02-12T22:00:20.531Z,97033.28
2019-02-12T22:05:23.848Z,97028.61
2019-02-12T22:10:29.713Z,97028.13
2019-02-12T22:15:36.737Z,97029.70
2019-02-12T22:20:44.083Z,97035.53
2019-02-12T22:25:47.089Z,97028.70
2019-02-12T22:30:54.637Z,97025.52
2019-02-12T22:36:00.701Z,97031.22
2019-02-12T22:41:10.543Z,97034.33
2019-02-12T22:46:19.329Z,97048.48
2019-02-12T22:51:23.745Z,97042.80
2019-02-12T22:56:26.108Z,97036.30
2019-02-12T23:01:30.009Z,97040.31
2019-02-12T23:11:45.715Z,97026.76
2019-02-12T23:16:47.756Z,97021.82
2019-02-12T23:21:49.112Z,97013.33
2019-02-12T23:26:50.446Z,97010.28
2019-02-12T23:31:51.768Z,97004.41
2019-02-12T23:36:53.109Z,97007.60
2019-02-12T23:41:54.584Z,97013.80
2019-02-12T23:46:55.921Z,97021.48
2019-02-12T23:51:57.277Z,97022.11
2019-02-12T23:56:58.624Z,97022.81
